sensor_id;sensor_type;location;lat;lon;timestamp;P1;durP1;ratioP1;P2;durP2;ratioP2
46110;SDS011;31849;55.992;37.252;2022-11-20T00:02:34;19.25;;;9.07;;
46110;SDS011;31849;55.992;37.252;2022-11-20T00:07:39;14.60;;;8.07;;
46110;SDS011;31849;55.992;37.252;2022-11-20T00:12:42;15.70;;;8.55;;
46110;SDS011;31849;55.992;37.252;2022-11-20T00:17:46;16.23;;;8.43;;
46110;SDS011;31849;55.992;37.252;2022-11-20T00:22:50;17.67;;;8.27;;
46110;SDS011;31849;55.992;37.252;2022-11-20T00:27:54;15.65;;;8.07;;
46110;SDS011;31849;55.992;37.252;2022-11-20T00:32:57;13.77;;;8.45;;
46110;SDS011;31849;55.992;37.252;2022-11-20T00:38:02;18.27;;;8.50;;
46110;SDS011;31849;55.992;37.252;2022-11-20T00:43:05;17.65;;;8.25;;
46110;SDS011;31849;55.992;37.252;2022-11-20T00:48:09;14.18;;;7.50;;
46110;SDS011;31849;55.992;37.252;2022-11-20T00:53:13;17.13;;;8.60;;
46110;SDS011;31849;55.992;37.252;2022-11-20T00:58:17;16.05;;;8.02;;
46110;SDS011;31849;55.992;37.252;2022-11-20T01:03:20;15.90;;;8.10;;
46110;SDS011;31849;55.992;37.252;2022-11-20T01:08:30;14.82;;;7.70;;
46110;SDS011;31849;55.992;37.252;2022-11-20T01:13:34;14.05;;;7.80;;
46110;SDS011;31849;55.992;37.252;2022-11-20T01:18:41;14.15;;;7.53;;
46110;SDS011;31849;55.992;37.252;2022-11-20T01:23:47;10.95;;;6.20;;
46110;SDS011;31849;55.992;37.252;2022-11-20T01:28:51;12.52;;;7.13;;
46110;SDS011;31849;55.992;37.252;2022-11-20T01:33:56;15.55;;;7.57;;
46110;SDS011;31849;55.992;37.252;2022-11-20T01:39:04;12.63;;;6.80;;
46110;SDS011;31849;55.992;37.252;2022-11-20T01:44:10;12.48;;;6.50;;
46110;SDS011;31849;55.992;37.252;2022-11-20T01:49:17;12.77;;;6.57;;
46110;SDS011;31849;55.992;37.252;2022-11-20T01:54:25;12.40;;;6.10;;
46110;SDS011;31849;55.992;37.252;2022-11-20T01:59:34;15.32;;;6.95;;
46110;SDS011;31849;55.992;37.252;2022-11-20T02:04:44;12.95;;;7.43;;
46110;SDS011;31849;55.992;37.252;2022-11-20T02:09:50;12.88;;;6.72;;
46110;SDS011;31849;55.992;37.252;2022-11-20T02:14:59;12.65;;;6.75;;
46110;SDS011;31849;55.992;37.252;2022-11-20T02:25:09;14.02;;;6.72;;
46110;SDS011;31849;55.992;37.252;2022-11-20T02:30:13;15.10;;;7.72;;
46110;SDS011;31849;55.992;37.252;2022-11-20T02:40:45;12.38;;;6.38;;
46110;SDS011;31849;55.992;37.252;2022-11-20T02:45:55;14.10;;;7.25;;
46110;SDS011;31849;55.992;37.252;2022-11-20T02:50:58;12.00;;;6.60;;
46110;SDS011;31849;55.992;37.252;2022-11-20T02:56:04;13.60;;;7.25;;
46110;SDS011;31849;55.992;37.252;2022-11-20T03:01:08;13.18;;;6.90;;
46110;SDS011;31849;55.992;37.252;2022-11-20T03:06:11;11.63;;;6.72;;
46110;SDS011;31849;55.992;37.252;2022-11-20T03:11:16;14.27;;;7.50;;
46110;SDS011;31849;55.992;37.252;2022-11-20T03:21:24;12.15;;;7.03;;
46110;SDS011;31849;55.992;37.252;2022-11-20T03:26:29;13.52;;;6.45;;
46110;SDS011;31849;55.992;37.252;2022-11-20T03:31:33;11.48;;;7.47;;
46110;SDS011;31849;55.992;37.252;2022-11-20T03:36:38;12.43;;;6.97;;
46110;SDS011;31849;55.992;37.252;2022-11-20T03:41:43;12.88;;;6.95;;
46110;SDS011;31849;55.992;37.252;2022-11-20T03:46:47;11.93;;;7.25;;
46110;SDS011;31849;55.992;37.252;2022-11-20T03:51:50;11.85;;;6.45;;
46110;SDS011;31849;55.992;37.252;2022-11-20T03:56:55;14.57;;;7.18;;
46110;SDS011;31849;55.992;37.252;2022-11-20T04:01:58;12.43;;;6.57;;
46110;SDS011;31849;55.992;37.252;2022-11-20T04:07:01;13.83;;;6.83;;
46110;SDS011;31849;55.992;37.252;2022-11-20T04:12:06;12.48;;;6.63;;
46110;SDS011;31849;55.992;37.252;2022-11-20T04:17:10;11.52;;;6.18;;
46110;SDS011;31849;55.992;37.252;2022-11-20T04:22:13;12.40;;;6.50;;
46110;SDS011;31849;55.992;37.252;2022-11-20T04:27:18;14.07;;;7.35;;
46110;SDS011;31849;55.992;37.252;2022-11-20T04:37:24;12.23;;;6.55;;
46110;SDS011;31849;55.992;37.252;2022-11-20T04:42:29;12.80;;;6.88;;
46110;SDS011;31849;55.992;37.252;2022-11-20T04:47:32;12.38;;;7.38;;
46110;SDS011;31849;55.992;37.252;2022-11-20T04:52:36;11.70;;;7.07;;
46110;SDS011;31849;55.992;37.252;2022-11-20T04:57:41;13.52;;;7.72;;
46110;SDS011;31849;55.992;37.252;2022-11-20T05:02:44;13.15;;;7.65;;
46110;SDS011;31849;55.992;37.252;2022-11-20T05:07:47;12.75;;;7.95;;
46110;SDS011;31849;55.992;37.252;2022-11-20T05:12:52;14.57;;;8.55;;
46110;SDS011;31849;55.992;37.252;2022-11-20T05:17:55;15.57;;;8.30;;
46110;SDS011;31849;55.992;37.252;2022-11-20T05:22:59;13.38;;;7.78;;
46110;SDS011;31849;55.992;37.252;2022-11-20T05:28:04;18.60;;;9.70;;
46110;SDS011;31849;55.992;37.252;2022-11-20T05:33:08;18.92;;;9.35;;
46110;SDS011;31849;55.992;37.252;2022-11-20T05:38:12;20.80;;;10.00;;
46110;SDS011;31849;55.992;37.252;2022-11-20T05:43:16;23.45;;;10.43;;
46110;SDS011;31849;55.992;37.252;2022-11-20T05:48:20;18.30;;;9.93;;
46110;SDS011;31849;55.992;37.252;2022-11-20T05:53:23;21.02;;;10.30;;
46110;SDS011;31849;55.992;37.252;2022-11-20T05:58:30;19.88;;;9.95;;
46110;SDS011;31849;55.992;37.252;2022-11-20T06:03:34;21.02;;;11.23;;
46110;SDS011;31849;55.992;37.252;2022-11-20T06:08:37;22.63;;;11.13;;
46110;SDS011;31849;55.992;37.252;2022-11-20T06:13:42;20.92;;;11.35;;
46110;SDS011;31849;55.992;37.252;2022-11-20T06:18:46;19.75;;;11.07;;
46110;SDS011;31849;55.992;37.252;2022-11-20T06:23:51;21.25;;;11.32;;
46110;SDS011;31849;55.992;37.252;2022-11-20T06:28:57;22.85;;;11.60;;
46110;SDS011;31849;55.992;37.252;2022-11-20T06:34:00;21.33;;;10.82;;
46110;SDS011;31849;55.992;37.252;2022-11-20T06:39:04;21.95;;;10.65;;
46110;SDS011;31849;55.992;37.252;2022-11-20T06:44:08;20.17;;;10.90;;
46110;SDS011;31849;55.992;37.252;2022-11-20T06:54:15;22.90;;;10.80;;
46110;SDS011;31849;55.992;37.252;2022-11-20T06:59:19;21.30;;;10.82;;
46110;SDS011;31849;55.992;37.252;2022-11-20T07:04:23;22.98;;;11.45;;
46110;SDS011;31849;55.992;37.252;2022-11-20T07:09:27;22.73;;;11.80;;
46110;SDS011;31849;55.992;37.252;2022-11-20T07:14:31;21.13;;;11.15;;
46110;SDS011;31849;55.992;37.252;2022-11-20T07:24:38;24.60;;;11.75;;
46110;SDS011;31849;55.992;37.252;2022-11-20T07:29:47;21.90;;;11.48;;
46110;SDS011;31849;55.992;37.252;2022-11-20T07:39:54;25.30;;;11.45;;
46110;SDS011;31849;55.992;37.252;2022-11-20T07:44:59;25.77;;;11.57;;
46110;SDS011;31849;55.992;37.252;2022-11-20T07:50:03;20.70;;;12.55;;
46110;SDS011;31849;55.992;37.252;2022-11-20T07:55:08;23.05;;;11.77;;
46110;SDS011;31849;55.992;37.252;2022-11-20T08:00:15;25.30;;;12.48;;
46110;SDS011;31849;55.992;37.252;2022-11-20T08:05:18;21.33;;;11.27;;
46110;SDS011;31849;55.992;37.252;2022-11-20T08:10:22;23.92;;;12.52;;
46110;SDS011;31849;55.992;37.252;2022-11-20T08:15:27;20.60;;;11.73;;
46110;SDS011;31849;55.992;37.252;2022-11-20T08:25:34;24.88;;;12.63;;
46110;SDS011;31849;55.992;37.252;2022-11-20T08:30:40;25.83;;;12.57;;
46110;SDS011;31849;55.992;37.252;2022-11-20T08:35:43;23.10;;;12.32;;
46110;SDS011;31849;55.992;37.252;2022-11-20T08:40:46;24.05;;;13.57;;
46110;SDS011;31849;55.992;37.252;2022-11-20T08:46:05;21.10;;;12.30;;
46110;SDS011;31849;55.992;37.252;2022-11-20T08:51:08;21.50;;;12.15;;
46110;SDS011;31849;55.992;37.252;2022-11-20T08:56:12;25.60;;;12.82;;
46110;SDS011;31849;55.992;37.252;2022-11-20T09:01:17;24.73;;;12.40;;
46110;SDS011;31849;55.992;37.252;2022-11-20T09:11:23;26.25;;;12.85;;
46110;SDS011;31849;55.992;37.252;2022-11-20T09:16:29;22.95;;;12.95;;
46110;SDS011;31849;55.992;37.252;2022-11-20T09:26:36;30.73;;;15.50;;
46110;SDS011;31849;55.992;37.252;2022-11-20T09:31:41;30.03;;;16.17;;
46110;SDS011;31849;55.992;37.252;2022-11-20T09:41:53;28.63;;;15.50;;
46110;SDS011;31849;55.992;37.252;2022-11-20T09:47:11;29.77;;;15.70;;
46110;SDS011;31849;55.992;37.252;2022-11-20T09:52:21;30.75;;;15.90;;
46110;SDS011;31849;55.992;37.252;2022-11-20T09:57:32;29.70;;;14.45;;
46110;SDS011;31849;55.992;37.252;2022-11-20T10:02:41;26.98;;;15.00;;
46110;SDS011;31849;55.992;37.252;2022-11-20T10:07:51;28.77;;;15.65;;
46110;SDS011;31849;55.992;37.252;2022-11-20T10:13:02;29.13;;;15.05;;
46110;SDS011;31849;55.992;37.252;2022-11-20T10:18:23;31.60;;;15.13;;
46110;SDS011;31849;55.992;37.252;2022-11-20T10:23:49;34.42;;;16.75;;
46110;SDS011;31849;55.992;37.252;2022-11-20T10:29:10;35.53;;;16.55;;
46110;SDS011;31849;55.992;37.252;2022-11-20T10:34:22;36.53;;;17.27;;
46110;SDS011;31849;55.992;37.252;2022-11-20T10:39:32;40.13;;;16.97;;
46110;SDS011;31849;55.992;37.252;2022-11-20T10:44:41;32.97;;;16.58;;
46110;SDS011;31849;55.992;37.252;2022-11-20T10:50:11;35.17;;;17.15;;
46110;SDS011;31849;55.992;37.252;2022-11-20T10:55:25;38.13;;;16.60;;
46110;SDS011;31849;55.992;37.252;2022-11-20T11:00:32;35.03;;;16.77;;
46110;SDS011;31849;55.992;37.252;2022-11-20T11:05:39;37.72;;;16.40;;
46110;SDS011;31849;55.992;37.252;2022-11-20T11:10:46;28.90;;;14.88;;
46110;SDS011;31849;55.992;37.252;2022-11-20T11:15:54;23.10;;;11.85;;
46110;SDS011;31849;55.992;37.252;2022-11-20T11:21:00;20.33;;;11.03;;
46110;SDS011;31849;55.992;37.252;2022-11-20T11:26:06;20.58;;;10.55;;
46110;SDS011;31849;55.992;37.252;2022-11-20T11:31:24;19.73;;;9.60;;
46110;SDS011;31849;55.992;37.252;2022-11-20T11:36:31;17.38;;;9.95;;
46110;SDS011;31849;55.992;37.252;2022-11-20T11:41:36;18.27;;;9.55;;
46110;SDS011;31849;55.992;37.252;2022-11-20T11:46:40;17.23;;;9.43;;
46110;SDS011;31849;55.992;37.252;2022-11-20T11:51:52;16.48;;;9.70;;
46110;SDS011;31849;55.992;37.252;2022-11-20T11:57:05;17.77;;;9.77;;
46110;SDS011;31849;55.992;37.252;2022-11-20T12:02:22;17.83;;;9.57;;
46110;SDS011;31849;55.992;37.252;2022-11-20T12:07:37;19.35;;;10.13;;
46110;SDS011;31849;55.992;37.252;2022-11-20T12:12:51;18.35;;;9.98;;
46110;SDS011;31849;55.992;37.252;2022-11-20T12:17:57;17.33;;;9.95;;
46110;SDS011;31849;55.992;37.252;2022-11-20T12:23:04;18.10;;;9.90;;
46110;SDS011;31849;55.992;37.252;2022-11-20T12:28:23;17.95;;;10.13;;
46110;SDS011;31849;55.992;37.252;2022-11-20T12:33:48;18.80;;;10.35;;
46110;SDS011;31849;55.992;37.252;2022-11-20T12:44:48;22.17;;;11.30;;
46110;SDS011;31849;55.992;37.252;2022-11-20T12:50:23;19.25;;;10.60;;
46110;SDS011;31849;55.992;37.252;2022-11-20T12:55:56;20.20;;;10.32;;
46110;SDS011;31849;55.992;37.252;2022-11-20T13:01:20;19.73;;;10.57;;
46110;SDS011;31849;55.992;37.252;2022-11-20T13:06:44;22.02;;;11.48;;
46110;SDS011;31849;55.992;37.252;2022-11-20T13:11:50;20.08;;;11.15;;
46110;SDS011;31849;55.992;37.252;2022-11-20T13:17:03;18.92;;;10.77;;
46110;SDS011;31849;55.992;37.252;2022-11-20T13:22:12;20.13;;;11.52;;
46110;SDS011;31849;55.992;37.252;2022-11-20T13:27:28;20.10;;;11.37;;
46110;SDS011;31849;55.992;37.252;2022-11-20T13:32:32;20.00;;;10.48;;
46110;SDS011;31849;55.992;37.252;2022-11-20T13:37:36;18.45;;;10.95;;
46110;SDS011;31849;55.992;37.252;2022-11-20T13:47:48;21.80;;;11.10;;
46110;SDS011;31849;55.992;37.252;2022-11-20T13:52:54;23.77;;;12.43;;
46110;SDS011;31849;55.992;37.252;2022-11-20T14:03:34;21.40;;;11.63;;
46110;SDS011;31849;55.992;37.252;2022-11-20T14:08:58;17.20;;;10.52;;
46110;SDS011;31849;55.992;37.252;2022-11-20T14:14:04;17.73;;;10.40;;
46110;SDS011;31849;55.992;37.252;2022-11-20T14:19:27;18.40;;;10.65;;
46110;SDS011;31849;55.992;37.252;2022-11-20T14:24:33;16.60;;;10.35;;
46110;SDS011;31849;55.992;37.252;2022-11-20T14:29:38;19.77;;;11.27;;
46110;SDS011;31849;55.992;37.252;2022-11-20T14:34:43;18.67;;;10.55;;
46110;SDS011;31849;55.992;37.252;2022-11-20T14:39:49;16.30;;;9.73;;
46110;SDS011;31849;55.992;37.252;2022-11-20T14:44:56;17.33;;;10.38;;
46110;SDS011;31849;55.992;37.252;2022-11-20T14:50:01;18.10;;;10.98;;
46110;SDS011;31849;55.992;37.252;2022-11-20T14:55:13;21.73;;;10.85;;
46110;SDS011;31849;55.992;37.252;2022-11-20T15:00:29;20.45;;;11.23;;
46110;SDS011;31849;55.992;37.252;2022-11-20T15:05:47;25.55;;;11.40;;
46110;SDS011;31849;55.992;37.252;2022-11-20T15:10:52;24.67;;;11.25;;
46110;SDS011;31849;55.992;37.252;2022-11-20T15:15:58;18.05;;;10.23;;
46110;SDS011;31849;55.992;37.252;2022-11-20T15:21:03;20.15;;;11.75;;
46110;SDS011;31849;55.992;37.252;2022-11-20T15:26:13;16.88;;;10.45;;
46110;SDS011;31849;55.992;37.252;2022-11-20T15:31:22;19.33;;;10.75;;
46110;SDS011;31849;55.992;37.252;2022-11-20T15:36:26;16.55;;;10.25;;
46110;SDS011;31849;55.992;37.252;2022-11-20T15:41:30;18.88;;;10.88;;
46110;SDS011;31849;55.992;37.252;2022-11-20T15:46:37;19.60;;;11.27;;
46110;SDS011;31849;55.992;37.252;2022-11-20T15:51:44;18.52;;;10.27;;
46110;SDS011;31849;55.992;37.252;2022-11-20T15:56:49;19.70;;;10.80;;
46110;SDS011;31849;55.992;37.252;2022-11-20T16:01:57;22.48;;;11.18;;
46110;SDS011;31849;55.992;37.252;2022-11-20T16:07:00;20.50;;;11.88;;
46110;SDS011;31849;55.992;37.252;2022-11-20T16:12:04;21.52;;;10.93;;
46110;SDS011;31849;55.992;37.252;2022-11-20T16:17:09;20.55;;;11.63;;
46110;SDS011;31849;55.992;37.252;2022-11-20T16:22:13;19.95;;;11.02;;
46110;SDS011;31849;55.992;37.252;2022-11-20T16:27:17;20.33;;;11.75;;
46110;SDS011;31849;55.992;37.252;2022-11-20T16:32:22;21.88;;;11.52;;
46110;SDS011;31849;55.992;37.252;2022-11-20T16:37:25;22.15;;;11.35;;
46110;SDS011;31849;55.992;37.252;2022-11-20T16:42:30;19.58;;;10.80;;
46110;SDS011;31849;55.992;37.252;2022-11-20T16:47:37;21.58;;;11.13;;
46110;SDS011;31849;55.992;37.252;2022-11-20T16:57:44;22.45;;;11.68;;
46110;SDS011;31849;55.992;37.252;2022-11-20T17:02:48;26.20;;;13.32;;
46110;SDS011;31849;55.992;37.252;2022-11-20T17:07:51;22.13;;;12.07;;
46110;SDS011;31849;55.992;37.252;2022-11-20T17:12:55;19.88;;;11.60;;
46110;SDS011;31849;55.992;37.252;2022-11-20T17:18:00;22.83;;;12.40;;
46110;SDS011;31849;55.992;37.252;2022-11-20T17:23:04;19.35;;;11.98;;
46110;SDS011;31849;55.992;37.252;2022-11-20T17:28:07;21.95;;;11.75;;
46110;SDS011;31849;55.992;37.252;2022-11-20T17:33:12;19.42;;;10.90;;
46110;SDS011;31849;55.992;37.252;2022-11-20T17:38:15;15.52;;;9.82;;
46110;SDS011;31849;55.992;37.252;2022-11-20T17:43:19;22.55;;;11.48;;
46110;SDS011;31849;55.992;37.252;2022-11-20T17:48:23;22.30;;;12.35;;
46110;SDS011;31849;55.992;37.252;2022-11-20T17:53:31;24.77;;;12.90;;
46110;SDS011;31849;55.992;37.252;2022-11-20T17:58:36;21.42;;;11.77;;
46110;SDS011;31849;55.992;37.252;2022-11-20T18:03:43;23.25;;;12.77;;
46110;SDS011;31849;55.992;37.252;2022-11-20T18:08:47;20.15;;;12.00;;
46110;SDS011;31849;55.992;37.252;2022-11-20T18:13:51;20.92;;;12.07;;
46110;SDS011;31849;55.992;37.252;2022-11-20T18:19:15;19.42;;;11.57;;
46110;SDS011;31849;55.992;37.252;2022-11-20T18:24:20;17.83;;;10.15;;
46110;SDS011;31849;55.992;37.252;2022-11-20T18:29:24;20.15;;;11.70;;
46110;SDS011;31849;55.992;37.252;2022-11-20T18:34:30;18.15;;;10.88;;
46110;SDS011;31849;55.992;37.252;2022-11-20T18:39:34;22.50;;;11.77;;
46110;SDS011;31849;55.992;37.252;2022-11-20T18:44:39;22.75;;;12.40;;
46110;SDS011;31849;55.992;37.252;2022-11-20T18:49:57;21.88;;;12.45;;
46110;SDS011;31849;55.992;37.252;2022-11-20T18:55:04;21.55;;;11.85;;
46110;SDS011;31849;55.992;37.252;2022-11-20T19:05:13;19.60;;;11.18;;
46110;SDS011;31849;55.992;37.252;2022-11-20T19:10:18;20.08;;;11.90;;
46110;SDS011;31849;55.992;37.252;2022-11-20T19:15:22;22.75;;;11.88;;
46110;SDS011;31849;55.992;37.252;2022-11-20T19:20:26;20.27;;;11.45;;
46110;SDS011;31849;55.992;37.252;2022-11-20T19:25:30;21.35;;;11.50;;
46110;SDS011;31849;55.992;37.252;2022-11-20T19:30:38;22.85;;;10.90;;
46110;SDS011;31849;55.992;37.252;2022-11-20T19:35:43;17.60;;;10.23;;
46110;SDS011;31849;55.992;37.252;2022-11-20T19:40:47;20.77;;;10.73;;
46110;SDS011;31849;55.992;37.252;2022-11-20T19:45:50;18.15;;;10.45;;
46110;SDS011;31849;55.992;37.252;2022-11-20T19:50:55;19.75;;;10.13;;
46110;SDS011;31849;55.992;37.252;2022-11-20T19:55:59;16.75;;;9.60;;
46110;SDS011;31849;55.992;37.252;2022-11-20T20:01:06;17.27;;;9.57;;
46110;SDS011;31849;55.992;37.252;2022-11-20T20:06:12;16.90;;;9.73;;
46110;SDS011;31849;55.992;37.252;2022-11-20T20:11:18;17.73;;;9.95;;
46110;SDS011;31849;55.992;37.252;2022-11-20T20:16:23;21.25;;;9.82;;
46110;SDS011;31849;55.992;37.252;2022-11-20T20:21:30;15.65;;;9.27;;
46110;SDS011;31849;55.992;37.252;2022-11-20T20:26:34;17.05;;;10.02;;
46110;SDS011;31849;55.992;37.252;2022-11-20T20:31:38;17.13;;;9.85;;
46110;SDS011;31849;55.992;37.252;2022-11-20T20:36:43;17.05;;;8.88;;
46110;SDS011;31849;55.992;37.252;2022-11-20T20:46:50;17.85;;;8.82;;
46110;SDS011;31849;55.992;37.252;2022-11-20T20:51:55;15.85;;;9.20;;
46110;SDS011;31849;55.992;37.252;2022-11-20T20:56:58;16.45;;;9.48;;
46110;SDS011;31849;55.992;37.252;2022-11-20T21:02:02;14.82;;;8.70;;
46110;SDS011;31849;55.992;37.252;2022-11-20T21:07:07;17.33;;;9.20;;
46110;SDS011;31849;55.992;37.252;2022-11-20T21:12:11;15.43;;;8.77;;
46110;SDS011;31849;55.992;37.252;2022-11-20T21:17:15;17.05;;;9.30;;
46110;SDS011;31849;55.992;37.252;2022-11-20T21:22:20;16.25;;;9.10;;
46110;SDS011;31849;55.992;37.252;2022-11-20T21:27:23;14.57;;;8.48;;
46110;SDS011;31849;55.992;37.252;2022-11-20T21:32:27;16.98;;;8.63;;
46110;SDS011;31849;55.992;37.252;2022-11-20T21:37:31;15.95;;;8.77;;
46110;SDS011;31849;55.992;37.252;2022-11-20T21:42:41;16.15;;;8.10;;
46110;SDS011;31849;55.992;37.252;2022-11-20T21:47:47;13.48;;;8.40;;
46110;SDS011;31849;55.992;37.252;2022-11-20T21:52:52;17.40;;;9.15;;
46110;SDS011;31849;55.992;37.252;2022-11-20T21:57:55;15.07;;;9.13;;
46110;SDS011;31849;55.992;37.252;2022-11-20T22:02:58;17.92;;;10.10;;
46110;SDS011;31849;55.992;37.252;2022-11-20T22:08:03;16.33;;;9.27;;
46110;SDS011;31849;55.992;37.252;2022-11-20T22:13:07;20.42;;;10.40;;
46110;SDS011;31849;55.992;37.252;2022-11-20T22:18:28;17.83;;;9.70;;
46110;SDS011;31849;55.992;37.252;2022-11-20T22:23:33;18.73;;;10.50;;
46110;SDS011;31849;55.992;37.252;2022-11-20T22:28:36;22.17;;;11.00;;
46110;SDS011;31849;55.992;37.252;2022-11-20T22:33:40;18.40;;;10.20;;
46110;SDS011;31849;55.992;37.252;2022-11-20T22:38:45;19.08;;;10.13;;
46110;SDS011;31849;55.992;37.252;2022-11-20T22:43:52;21.63;;;10.27;;
46110;SDS011;31849;55.992;37.252;2022-11-20T22:48:57;22.52;;;11.55;;
46110;SDS011;31849;55.992;37.252;2022-11-20T22:54:03;22.17;;;11.68;;
46110;SDS011;31849;55.992;37.252;2022-11-20T22:59:07;21.20;;;11.07;;
46110;SDS011;31849;55.992;37.252;2022-11-20T23:04:10;22.33;;;11.75;;
46110;SDS011;31849;55.992;37.252;2022-11-20T23:09:15;21.35;;;11.75;;
46110;SDS011;31849;55.992;37.252;2022-11-20T23:14:18;19.15;;;11.10;;
46110;SDS011;31849;55.992;37.252;2022-11-20T23:19:28;20.52;;;11.32;;
46110;SDS011;31849;55.992;37.252;2022-11-20T23:24:32;21.65;;;12.05;;
46110;SDS011;31849;55.992;37.252;2022-11-20T23:29:35;24.17;;;11.93;;
46110;SDS011;31849;55.992;37.252;2022-11-20T23:34:39;20.75;;;11.85;;
46110;SDS011;31849;55.992;37.252;2022-11-20T23:39:43;26.05;;;12.10;;
46110;SDS011;31849;55.992;37.252;2022-11-20T23:44:47;21.08;;;11.20;;
46110;SDS011;31849;55.992;37.252;2022-11-20T23:49:50;23.38;;;12.05;;
46110;SDS011;31849;55.992;37.252;2022-11-20T23:54:55;20.92;;;11.75;;
46110;SDS011;31849;55.992;37.252;2022-11-20T23:59:58;22.55;;;11.63;;
